sensor_id;sensor_type;location;lat;lon;timestamp;P1;durP1;ratioP1;P2;durP2;ratioP2
4106;SDS011;21906;50.812;7.132;2023-12-28T00:01:19;2.60;;;2.40;;
4106;SDS011;21906;50.812;7.132;2023-12-28T00:03:44;2.93;;;2.50;;
4106;SDS011;21906;50.812;7.132;2023-12-28T00:06:10;2.67;;;2.47;;
4106;SDS011;21906;50.812;7.132;2023-12-28T00:08:36;2.70;;;2.50;;
4106;SDS011;21906;50.812;7.132;2023-12-28T00:11:02;3.00;;;2.47;;
4106;SDS011;21906;50.812;7.132;2023-12-28T00:13:27;2.60;;;2.40;;
4106;SDS011;21906;50.812;7.132;2023-12-28T00:15:53;2.77;;;2.57;;
4106;SDS011;21906;50.812;7.132;2023-12-28T00:18:19;3.13;;;2.83;;
4106;SDS011;21906;50.812;7.132;2023-12-28T00:20:44;2.90;;;2.70;;
4106;SDS011;21906;50.812;7.132;2023-12-28T00:23:10;2.50;;;2.30;;
4106;SDS011;21906;50.812;7.132;2023-12-28T00:25:36;2.57;;;2.37;;
4106;SDS011;21906;50.812;7.132;2023-12-28T00:28:01;2.70;;;2.40;;
4106;SDS011;21906;50.812;7.132;2023-12-28T00:30:27;2.40;;;2.20;;
4106;SDS011;21906;50.812;7.132;2023-12-28T00:32:53;2.07;;;1.87;;
4106;SDS011;21906;50.812;7.132;2023-12-28T00:35:19;2.03;;;1.93;;
4106;SDS011;21906;50.812;7.132;2023-12-28T00:37:48;2.47;;;2.27;;
4106;SDS011;21906;50.812;7.132;2023-12-28T00:40:13;2.43;;;2.03;;
4106;SDS011;21906;50.812;7.132;2023-12-28T00:42:39;2.40;;;2.20;;
4106;SDS011;21906;50.812;7.132;2023-12-28T00:45:06;2.17;;;1.63;;
4106;SDS011;21906;50.812;7.132;2023-12-28T00:47:32;2.10;;;1.90;;
4106;SDS011;21906;50.812;7.132;2023-12-28T00:49:58;2.30;;;1.60;;
4106;SDS011;21906;50.812;7.132;2023-12-28T00:52:24;2.37;;;2.17;;
4106;SDS011;21906;50.812;7.132;2023-12-28T00:54:49;1.80;;;1.70;;
4106;SDS011;21906;50.812;7.132;2023-12-28T00:57:15;2.37;;;2.17;;
4106;SDS011;21906;50.812;7.132;2023-12-28T00:59:41;2.37;;;2.17;;
4106;SDS011;21906;50.812;7.132;2023-12-28T01:02:07;1.87;;;1.77;;
4106;SDS011;21906;50.812;7.132;2023-12-28T01:04:32;2.30;;;1.87;;
4106;SDS011;21906;50.812;7.132;2023-12-28T01:06:58;1.83;;;1.73;;
4106;SDS011;21906;50.812;7.132;2023-12-28T01:09:27;2.23;;;2.07;;
4106;SDS011;21906;50.812;7.132;2023-12-28T01:11:53;2.10;;;2.00;;
4106;SDS011;21906;50.812;7.132;2023-12-28T01:14:18;1.90;;;1.70;;
4106;SDS011;21906;50.812;7.132;2023-12-28T01:16:44;1.80;;;1.70;;
4106;SDS011;21906;50.812;7.132;2023-12-28T01:19:10;1.93;;;1.73;;
4106;SDS011;21906;50.812;7.132;2023-12-28T01:21:36;1.70;;;1.60;;
4106;SDS011;21906;50.812;7.132;2023-12-28T01:24:02;1.90;;;1.80;;
4106;SDS011;21906;50.812;7.132;2023-12-28T01:26:28;1.70;;;1.60;;
4106;SDS011;21906;50.812;7.132;2023-12-28T01:28:53;1.90;;;1.80;;
4106;SDS011;21906;50.812;7.132;2023-12-28T01:31:19;1.83;;;1.73;;
4106;SDS011;21906;50.812;7.132;2023-12-28T01:33:45;1.80;;;1.70;;
4106;SDS011;21906;50.812;7.132;2023-12-28T01:36:17;1.73;;;1.63;;
4106;SDS011;21906;50.812;7.132;2023-12-28T01:38:43;1.60;;;1.50;;
4106;SDS011;21906;50.812;7.132;2023-12-28T01:41:09;1.73;;;1.63;;
4106;SDS011;21906;50.812;7.132;2023-12-28T01:43:35;1.50;;;1.40;;
4106;SDS011;21906;50.812;7.132;2023-12-28T01:46:00;1.50;;;1.40;;
4106;SDS011;21906;50.812;7.132;2023-12-28T01:48:26;1.57;;;1.47;;
4106;SDS011;21906;50.812;7.132;2023-12-28T01:50:54;1.30;;;1.20;;
4106;SDS011;21906;50.812;7.132;2023-12-28T01:53:20;1.47;;;1.37;;
4106;SDS011;21906;50.812;7.132;2023-12-28T01:55:46;1.40;;;1.30;;
4106;SDS011;21906;50.812;7.132;2023-12-28T01:58:11;1.63;;;1.53;;
4106;SDS011;21906;50.812;7.132;2023-12-28T02:00:37;1.50;;;1.40;;
4106;SDS011;21906;50.812;7.132;2023-12-28T02:03:04;2.33;;;1.90;;
4106;SDS011;21906;50.812;7.132;2023-12-28T02:05:31;2.00;;;1.83;;
4106;SDS011;21906;50.812;7.132;2023-12-28T02:07:58;2.03;;;1.57;;
4106;SDS011;21906;50.812;7.132;2023-12-28T02:10:23;2.10;;;2.00;;
4106;SDS011;21906;50.812;7.132;2023-12-28T02:12:49;2.23;;;1.90;;
4106;SDS011;21906;50.812;7.132;2023-12-28T02:15:15;2.20;;;1.97;;
4106;SDS011;21906;50.812;7.132;2023-12-28T02:20:20;1.97;;;1.70;;
4106;SDS011;21906;50.812;7.132;2023-12-28T02:22:47;2.07;;;1.73;;
4106;SDS011;21906;50.812;7.132;2023-12-28T02:25:13;1.80;;;1.70;;
4106;SDS011;21906;50.812;7.132;2023-12-28T02:27:42;1.80;;;1.70;;
4106;SDS011;21906;50.812;7.132;2023-12-28T02:30:13;1.87;;;1.77;;
4106;SDS011;21906;50.812;7.132;2023-12-28T02:35:44;1.60;;;1.50;;
4106;SDS011;21906;50.812;7.132;2023-12-28T02:38:14;1.93;;;1.83;;
4106;SDS011;21906;50.812;7.132;2023-12-28T02:40:42;1.90;;;1.80;;
4106;SDS011;21906;50.812;7.132;2023-12-28T02:43:09;2.20;;;2.00;;
4106;SDS011;21906;50.812;7.132;2023-12-28T02:45:36;1.87;;;1.77;;
4106;SDS011;21906;50.812;7.132;2023-12-28T02:48:02;2.43;;;1.90;;
4106;SDS011;21906;50.812;7.132;2023-12-28T02:50:28;1.73;;;1.63;;
4106;SDS011;21906;50.812;7.132;2023-12-28T02:52:57;2.80;;;1.70;;
4106;SDS011;21906;50.812;7.132;2023-12-28T02:55:23;1.80;;;1.70;;
4106;SDS011;21906;50.812;7.132;2023-12-28T02:57:49;1.70;;;1.60;;
4106;SDS011;21906;50.812;7.132;2023-12-28T03:00:16;2.20;;;2.00;;
4106;SDS011;21906;50.812;7.132;2023-12-28T03:02:41;1.87;;;1.67;;
4106;SDS011;21906;50.812;7.132;2023-12-28T03:05:07;1.87;;;1.60;;
4106;SDS011;21906;50.812;7.132;2023-12-28T03:07:34;1.87;;;1.73;;
4106;SDS011;21906;50.812;7.132;2023-12-28T03:10:00;2.13;;;1.93;;
4106;SDS011;21906;50.812;7.132;2023-12-28T03:12:28;1.83;;;1.70;;
4106;SDS011;21906;50.812;7.132;2023-12-28T03:14:54;1.60;;;1.50;;
4106;SDS011;21906;50.812;7.132;2023-12-28T03:17:20;1.70;;;1.60;;
4106;SDS011;21906;50.812;7.132;2023-12-28T03:19:45;1.80;;;1.70;;
4106;SDS011;21906;50.812;7.132;2023-12-28T03:22:11;1.70;;;1.60;;
4106;SDS011;21906;50.812;7.132;2023-12-28T03:24:37;2.00;;;1.90;;
4106;SDS011;21906;50.812;7.132;2023-12-28T03:27:03;1.87;;;1.70;;
4106;SDS011;21906;50.812;7.132;2023-12-28T03:29:29;1.80;;;1.60;;
4106;SDS011;21906;50.812;7.132;2023-12-28T03:31:55;2.00;;;1.80;;
4106;SDS011;21906;50.812;7.132;2023-12-28T03:34:22;1.87;;;1.60;;
4106;SDS011;21906;50.812;7.132;2023-12-28T03:36:48;1.70;;;1.60;;
4106;SDS011;21906;50.812;7.132;2023-12-28T03:39:14;1.70;;;1.60;;
4106;SDS011;21906;50.812;7.132;2023-12-28T03:41:40;1.70;;;1.60;;
4106;SDS011;21906;50.812;7.132;2023-12-28T03:44:05;2.00;;;1.90;;
4106;SDS011;21906;50.812;7.132;2023-12-28T03:46:31;1.90;;;1.80;;
4106;SDS011;21906;50.812;7.132;2023-12-28T03:48:56;1.90;;;1.80;;
4106;SDS011;21906;50.812;7.132;2023-12-28T03:51:22;1.90;;;1.80;;
4106;SDS011;21906;50.812;7.132;2023-12-28T03:53:49;1.67;;;1.57;;
4106;SDS011;21906;50.812;7.132;2023-12-28T03:56:22;1.90;;;1.80;;
4106;SDS011;21906;50.812;7.132;2023-12-28T03:58:51;2.00;;;1.90;;
4106;SDS011;21906;50.812;7.132;2023-12-28T04:01:18;1.90;;;1.80;;
4106;SDS011;21906;50.812;7.132;2023-12-28T04:03:44;1.97;;;1.87;;
4106;SDS011;21906;50.812;7.132;2023-12-28T04:06:10;2.40;;;1.80;;
4106;SDS011;21906;50.812;7.132;2023-12-28T04:08:37;1.90;;;1.80;;
4106;SDS011;21906;50.812;7.132;2023-12-28T04:11:03;1.97;;;1.83;;
4106;SDS011;21906;50.812;7.132;2023-12-28T04:13:29;2.10;;;1.87;;
4106;SDS011;21906;50.812;7.132;2023-12-28T04:15:54;2.20;;;2.00;;
4106;SDS011;21906;50.812;7.132;2023-12-28T04:18:20;2.10;;;1.90;;
4106;SDS011;21906;50.812;7.132;2023-12-28T04:20:46;2.13;;;2.00;;
4106;SDS011;21906;50.812;7.132;2023-12-28T04:23:11;2.23;;;2.03;;
4106;SDS011;21906;50.812;7.132;2023-12-28T04:25:37;1.90;;;1.80;;
4106;SDS011;21906;50.812;7.132;2023-12-28T04:28:02;2.37;;;2.17;;
4106;SDS011;21906;50.812;7.132;2023-12-28T04:30:28;2.30;;;2.20;;
4106;SDS011;21906;50.812;7.132;2023-12-28T04:32:54;2.10;;;2.00;;
4106;SDS011;21906;50.812;7.132;2023-12-28T04:35:19;2.27;;;2.07;;
4106;SDS011;21906;50.812;7.132;2023-12-28T04:37:45;2.60;;;2.40;;
4106;SDS011;21906;50.812;7.132;2023-12-28T04:40:11;2.70;;;2.20;;
4106;SDS011;21906;50.812;7.132;2023-12-28T04:42:39;2.40;;;2.20;;
4106;SDS011;21906;50.812;7.132;2023-12-28T04:45:05;3.40;;;2.63;;
4106;SDS011;21906;50.812;7.132;2023-12-28T04:47:31;2.20;;;2.00;;
4106;SDS011;21906;50.812;7.132;2023-12-28T04:49:57;2.40;;;2.20;;
4106;SDS011;21906;50.812;7.132;2023-12-28T04:52:22;2.83;;;2.63;;
4106;SDS011;21906;50.812;7.132;2023-12-28T04:54:48;2.50;;;2.30;;
4106;SDS011;21906;50.812;7.132;2023-12-28T04:57:14;2.80;;;2.13;;
4106;SDS011;21906;50.812;7.132;2023-12-28T04:59:39;3.70;;;2.40;;
4106;SDS011;21906;50.812;7.132;2023-12-28T05:02:06;2.60;;;2.40;;
4106;SDS011;21906;50.812;7.132;2023-12-28T05:04:32;2.50;;;2.33;;
4106;SDS011;21906;50.812;7.132;2023-12-28T05:06:57;4.23;;;2.60;;
4106;SDS011;21906;50.812;7.132;2023-12-28T05:09:23;3.20;;;2.47;;
4106;SDS011;21906;50.812;7.132;2023-12-28T05:11:49;2.80;;;2.60;;
4106;SDS011;21906;50.812;7.132;2023-12-28T05:14:14;2.50;;;2.40;;
4106;SDS011;21906;50.812;7.132;2023-12-28T05:16:40;2.70;;;2.50;;
4106;SDS011;21906;50.812;7.132;2023-12-28T05:19:05;3.47;;;2.60;;
4106;SDS011;21906;50.812;7.132;2023-12-28T05:21:31;3.10;;;2.90;;
4106;SDS011;21906;50.812;7.132;2023-12-28T05:23:56;2.70;;;2.50;;
4106;SDS011;21906;50.812;7.132;2023-12-28T05:26:22;2.63;;;2.43;;
4106;SDS011;21906;50.812;7.132;2023-12-28T05:28:49;2.70;;;2.50;;
4106;SDS011;21906;50.812;7.132;2023-12-28T05:31:14;2.93;;;2.70;;
4106;SDS011;21906;50.812;7.132;2023-12-28T05:33:40;2.50;;;2.30;;
4106;SDS011;21906;50.812;7.132;2023-12-28T05:36:06;2.70;;;2.50;;
4106;SDS011;21906;50.812;7.132;2023-12-28T05:38:31;4.07;;;2.60;;
4106;SDS011;21906;50.812;7.132;2023-12-28T05:40:57;3.30;;;3.10;;
4106;SDS011;21906;50.812;7.132;2023-12-28T05:43:23;2.60;;;2.33;;
4106;SDS011;21906;50.812;7.132;2023-12-28T05:45:48;2.70;;;2.50;;
4106;SDS011;21906;50.812;7.132;2023-12-28T05:48:14;2.80;;;2.60;;
4106;SDS011;21906;50.812;7.132;2023-12-28T05:50:39;2.47;;;2.30;;
4106;SDS011;21906;50.812;7.132;2023-12-28T05:53:05;2.30;;;2.10;;
4106;SDS011;21906;50.812;7.132;2023-12-28T05:55:31;2.83;;;2.63;;
4106;SDS011;21906;50.812;7.132;2023-12-28T05:57:56;2.47;;;2.30;;
4106;SDS011;21906;50.812;7.132;2023-12-28T06:00:22;2.77;;;2.40;;
4106;SDS011;21906;50.812;7.132;2023-12-28T06:02:48;2.73;;;2.53;;
4106;SDS011;21906;50.812;7.132;2023-12-28T06:05:16;2.60;;;2.40;;
4106;SDS011;21906;50.812;7.132;2023-12-28T06:07:43;2.40;;;2.20;;
4106;SDS011;21906;50.812;7.132;2023-12-28T06:10:09;3.77;;;2.70;;
4106;SDS011;21906;50.812;7.132;2023-12-28T06:12:35;5.30;;;2.80;;
4106;SDS011;21906;50.812;7.132;2023-12-28T06:15:01;2.20;;;2.00;;
4106;SDS011;21906;50.812;7.132;2023-12-28T06:17:28;2.70;;;2.50;;
4106;SDS011;21906;50.812;7.132;2023-12-28T06:19:53;2.57;;;2.37;;
4106;SDS011;21906;50.812;7.132;2023-12-28T06:22:19;2.40;;;2.13;;
4106;SDS011;21906;50.812;7.132;2023-12-28T06:24:45;2.23;;;2.13;;
4106;SDS011;21906;50.812;7.132;2023-12-28T06:27:10;2.77;;;2.57;;
4106;SDS011;21906;50.812;7.132;2023-12-28T06:29:36;3.43;;;2.17;;
4106;SDS011;21906;50.812;7.132;2023-12-28T06:32:03;2.60;;;2.40;;
4106;SDS011;21906;50.812;7.132;2023-12-28T06:34:29;5.23;;;2.73;;
4106;SDS011;21906;50.812;7.132;2023-12-28T06:36:54;2.40;;;2.20;;
4106;SDS011;21906;50.812;7.132;2023-12-28T06:39:20;2.27;;;2.00;;
4106;SDS011;21906;50.812;7.132;2023-12-28T06:41:46;2.60;;;2.40;;
4106;SDS011;21906;50.812;7.132;2023-12-28T06:44:15;2.47;;;2.27;;
4106;SDS011;21906;50.812;7.132;2023-12-28T06:46:41;2.57;;;2.30;;
4106;SDS011;21906;50.812;7.132;2023-12-28T06:49:06;3.23;;;2.20;;
4106;SDS011;21906;50.812;7.132;2023-12-28T06:51:32;4.83;;;2.30;;
4106;SDS011;21906;50.812;7.132;2023-12-28T06:53:58;2.63;;;2.43;;
4106;SDS011;21906;50.812;7.132;2023-12-28T06:56:24;2.83;;;2.47;;
4106;SDS011;21906;50.812;7.132;2023-12-28T06:58:50;2.27;;;2.07;;
4106;SDS011;21906;50.812;7.132;2023-12-28T07:01:15;2.73;;;2.53;;
4106;SDS011;21906;50.812;7.132;2023-12-28T07:03:41;2.47;;;2.27;;
4106;SDS011;21906;50.812;7.132;2023-12-28T07:06:07;7.17;;;2.60;;
4106;SDS011;21906;50.812;7.132;2023-12-28T07:08:33;2.93;;;2.20;;
4106;SDS011;21906;50.812;7.132;2023-12-28T07:10:59;3.10;;;2.80;;
4106;SDS011;21906;50.812;7.132;2023-12-28T07:13:25;2.87;;;2.67;;
4106;SDS011;21906;50.812;7.132;2023-12-28T07:15:51;2.80;;;2.60;;
4106;SDS011;21906;50.812;7.132;2023-12-28T07:18:17;2.10;;;2.00;;
4106;SDS011;21906;50.812;7.132;2023-12-28T07:20:42;2.67;;;2.47;;
4106;SDS011;21906;50.812;7.132;2023-12-28T07:23:08;2.90;;;2.57;;
4106;SDS011;21906;50.812;7.132;2023-12-28T07:25:34;2.10;;;2.00;;
4106;SDS011;21906;50.812;7.132;2023-12-28T07:28:00;2.40;;;2.20;;
4106;SDS011;21906;50.812;7.132;2023-12-28T07:30:26;2.47;;;2.27;;
4106;SDS011;21906;50.812;7.132;2023-12-28T07:32:52;2.57;;;2.37;;
4106;SDS011;21906;50.812;7.132;2023-12-28T07:35:18;2.40;;;2.20;;
4106;SDS011;21906;50.812;7.132;2023-12-28T07:37:44;2.37;;;2.17;;
4106;SDS011;21906;50.812;7.132;2023-12-28T07:40:11;3.07;;;2.77;;
4106;SDS011;21906;50.812;7.132;2023-12-28T07:42:37;2.53;;;2.33;;
4106;SDS011;21906;50.812;7.132;2023-12-28T07:45:03;2.80;;;2.60;;
4106;SDS011;21906;50.812;7.132;2023-12-28T07:47:29;2.83;;;2.27;;
4106;SDS011;21906;50.812;7.132;2023-12-28T07:49:55;3.13;;;2.20;;
4106;SDS011;21906;50.812;7.132;2023-12-28T07:52:20;3.60;;;2.50;;
4106;SDS011;21906;50.812;7.132;2023-12-28T07:54:46;5.00;;;2.87;;
4106;SDS011;21906;50.812;7.132;2023-12-28T07:57:12;3.30;;;2.57;;
4106;SDS011;21906;50.812;7.132;2023-12-28T07:59:37;2.43;;;2.27;;
4106;SDS011;21906;50.812;7.132;2023-12-28T08:02:03;3.23;;;2.37;;
4106;SDS011;21906;50.812;7.132;2023-12-28T08:04:29;3.23;;;2.70;;
4106;SDS011;21906;50.812;7.132;2023-12-28T08:06:54;4.17;;;3.87;;
4106;SDS011;21906;50.812;7.132;2023-12-28T08:09:20;4.23;;;3.93;;
4106;SDS011;21906;50.812;7.132;2023-12-28T08:11:46;3.20;;;3.00;;
4106;SDS011;21906;50.812;7.132;2023-12-28T08:14:12;2.40;;;2.17;;
4106;SDS011;21906;50.812;7.132;2023-12-28T08:16:37;3.90;;;3.47;;
4106;SDS011;21906;50.812;7.132;2023-12-28T08:19:03;2.90;;;2.70;;
4106;SDS011;21906;50.812;7.132;2023-12-28T08:21:29;3.40;;;2.23;;
4106;SDS011;21906;50.812;7.132;2023-12-28T08:23:55;2.73;;;2.53;;
4106;SDS011;21906;50.812;7.132;2023-12-28T08:26:21;3.60;;;2.63;;
4106;SDS011;21906;50.812;7.132;2023-12-28T08:28:47;4.60;;;2.37;;
4106;SDS011;21906;50.812;7.132;2023-12-28T08:31:13;2.67;;;2.37;;
4106;SDS011;21906;50.812;7.132;2023-12-28T08:33:38;2.93;;;2.73;;
4106;SDS011;21906;50.812;7.132;2023-12-28T08:36:05;3.93;;;2.30;;
4106;SDS011;21906;50.812;7.132;2023-12-28T08:38:34;2.60;;;2.10;;
4106;SDS011;21906;50.812;7.132;2023-12-28T08:41:00;2.70;;;2.13;;
4106;SDS011;21906;50.812;7.132;2023-12-28T08:43:28;2.87;;;2.27;;
4106;SDS011;21906;50.812;7.132;2023-12-28T08:45:54;2.80;;;2.47;;
4106;SDS011;21906;50.812;7.132;2023-12-28T08:48:20;2.17;;;1.93;;
4106;SDS011;21906;50.812;7.132;2023-12-28T08:50:46;2.90;;;1.97;;
4106;SDS011;21906;50.812;7.132;2023-12-28T08:53:14;4.83;;;2.23;;
4106;SDS011;21906;50.812;7.132;2023-12-28T08:55:40;2.43;;;1.90;;
4106;SDS011;21906;50.812;7.132;2023-12-28T08:58:05;3.43;;;1.90;;
4106;SDS011;21906;50.812;7.132;2023-12-28T09:00:31;2.77;;;2.00;;
4106;SDS011;21906;50.812;7.132;2023-12-28T09:02:56;2.73;;;2.10;;
4106;SDS011;21906;50.812;7.132;2023-12-28T09:05:22;2.40;;;2.20;;
4106;SDS011;21906;50.812;7.132;2023-12-28T09:07:48;2.40;;;2.20;;
4106;SDS011;21906;50.812;7.132;2023-12-28T09:10:14;3.87;;;2.10;;
4106;SDS011;21906;50.812;7.132;2023-12-28T09:12:40;6.33;;;2.10;;
4106;SDS011;21906;50.812;7.132;2023-12-28T09:15:07;3.43;;;1.97;;
4106;SDS011;21906;50.812;7.132;2023-12-28T09:17:33;2.37;;;2.17;;
4106;SDS011;21906;50.812;7.132;2023-12-28T09:19:59;3.67;;;2.10;;
4106;SDS011;21906;50.812;7.132;2023-12-28T09:22:26;2.23;;;1.77;;
4106;SDS011;21906;50.812;7.132;2023-12-28T09:24:52;2.40;;;1.87;;
4106;SDS011;21906;50.812;7.132;2023-12-28T09:27:18;3.83;;;2.17;;
4106;SDS011;21906;50.812;7.132;2023-12-28T09:29:44;2.20;;;1.97;;
4106;SDS011;21906;50.812;7.132;2023-12-28T09:32:09;2.40;;;2.10;;
4106;SDS011;21906;50.812;7.132;2023-12-28T09:34:35;3.57;;;1.90;;
4106;SDS011;21906;50.812;7.132;2023-12-28T09:37:01;2.63;;;2.40;;
4106;SDS011;21906;50.812;7.132;2023-12-28T09:39:27;5.00;;;2.20;;
4106;SDS011;21906;50.812;7.132;2023-12-28T09:41:59;4.60;;;2.20;;
4106;SDS011;21906;50.812;7.132;2023-12-28T09:44:28;3.40;;;1.70;;
4106;SDS011;21906;50.812;7.132;2023-12-28T09:46:55;6.03;;;2.20;;
4106;SDS011;21906;50.812;7.132;2023-12-28T09:49:22;3.27;;;2.00;;
4106;SDS011;21906;50.812;7.132;2023-12-28T09:51:48;3.77;;;2.17;;
4106;SDS011;21906;50.812;7.132;2023-12-28T09:54:14;2.57;;;2.03;;
4106;SDS011;21906;50.812;7.132;2023-12-28T09:56:40;3.00;;;2.10;;
4106;SDS011;21906;50.812;7.132;2023-12-28T09:59:06;2.90;;;1.80;;
4106;SDS011;21906;50.812;7.132;2023-12-28T10:01:33;5.20;;;2.23;;
4106;SDS011;21906;50.812;7.132;2023-12-28T10:03:59;3.00;;;2.10;;
4106;SDS011;21906;50.812;7.132;2023-12-28T10:06:28;4.13;;;2.00;;
4106;SDS011;21906;50.812;7.132;2023-12-28T10:08:54;5.60;;;2.07;;
4106;SDS011;21906;50.812;7.132;2023-12-28T10:11:20;3.97;;;1.77;;
4106;SDS011;21906;50.812;7.132;2023-12-28T10:13:50;1.70;;;1.60;;
4106;SDS011;21906;50.812;7.132;2023-12-28T10:16:16;3.17;;;1.80;;
4106;SDS011;21906;50.812;7.132;2023-12-28T10:18:42;3.40;;;1.87;;
4106;SDS011;21906;50.812;7.132;2023-12-28T10:21:08;4.07;;;2.20;;
4106;SDS011;21906;50.812;7.132;2023-12-28T10:23:34;2.10;;;1.90;;
4106;SDS011;21906;50.812;7.132;2023-12-28T10:26:01;2.00;;;1.80;;
4106;SDS011;21906;50.812;7.132;2023-12-28T10:28:32;2.53;;;2.00;;
4106;SDS011;21906;50.812;7.132;2023-12-28T10:31:00;1.87;;;1.77;;
4106;SDS011;21906;50.812;7.132;2023-12-28T10:33:26;4.17;;;1.80;;
4106;SDS011;21906;50.812;7.132;2023-12-28T10:35:52;2.40;;;2.00;;
4106;SDS011;21906;50.812;7.132;2023-12-28T10:38:22;3.00;;;1.87;;
4106;SDS011;21906;50.812;7.132;2023-12-28T10:40:50;2.30;;;2.03;;
4106;SDS011;21906;50.812;7.132;2023-12-28T10:43:17;2.40;;;2.00;;
4106;SDS011;21906;50.812;7.132;2023-12-28T10:45:48;2.70;;;2.00;;
4106;SDS011;21906;50.812;7.132;2023-12-28T10:48:16;1.70;;;1.40;;
4106;SDS011;21906;50.812;7.132;2023-12-28T10:50:50;2.30;;;1.80;;
4106;SDS011;21906;50.812;7.132;2023-12-28T10:58:58;5.90;;;1.70;;
4106;SDS011;21906;50.812;7.132;2023-12-28T11:01:31;2.07;;;1.60;;
4106;SDS011;21906;50.812;7.132;2023-12-28T11:06:53;1.70;;;1.60;;
4106;SDS011;21906;50.812;7.132;2023-12-28T11:09:21;3.30;;;1.50;;
4106;SDS011;21906;50.812;7.132;2023-12-28T11:11:49;2.70;;;1.90;;
4106;SDS011;21906;50.812;7.132;2023-12-28T11:14:18;2.13;;;1.93;;
4106;SDS011;21906;50.812;7.132;2023-12-28T11:16:44;4.93;;;1.93;;
4106;SDS011;21906;50.812;7.132;2023-12-28T11:19:10;1.93;;;1.60;;
4106;SDS011;21906;50.812;7.132;2023-12-28T11:21:38;5.10;;;1.60;;
4106;SDS011;21906;50.812;7.132;2023-12-28T11:24:04;4.60;;;1.90;;
4106;SDS011;21906;50.812;7.132;2023-12-28T11:26:30;3.73;;;2.13;;
4106;SDS011;21906;50.812;7.132;2023-12-28T11:29:02;2.87;;;1.70;;
4106;SDS011;21906;50.812;7.132;2023-12-28T11:31:31;2.87;;;1.60;;
4106;SDS011;21906;50.812;7.132;2023-12-28T11:34:01;3.10;;;1.60;;
4106;SDS011;21906;50.812;7.132;2023-12-28T11:36:36;3.50;;;2.00;;
4106;SDS011;21906;50.812;7.132;2023-12-28T11:39:08;1.87;;;1.50;;
4106;SDS011;21906;50.812;7.132;2023-12-28T11:41:35;2.20;;;1.63;;
4106;SDS011;21906;50.812;7.132;2023-12-28T11:44:05;2.63;;;1.70;;
4106;SDS011;21906;50.812;7.132;2023-12-28T11:46:31;3.43;;;1.63;;
4106;SDS011;21906;50.812;7.132;2023-12-28T11:49:04;2.20;;;1.80;;
4106;SDS011;21906;50.812;7.132;2023-12-28T11:51:30;4.90;;;1.90;;
4106;SDS011;21906;50.812;7.132;2023-12-28T11:53:57;4.77;;;1.90;;
4106;SDS011;21906;50.812;7.132;2023-12-28T11:56:24;6.00;;;2.10;;
4106;SDS011;21906;50.812;7.132;2023-12-28T11:58:51;1.93;;;1.80;;
4106;SDS011;21906;50.812;7.132;2023-12-28T12:01:16;2.90;;;1.60;;
4106;SDS011;21906;50.812;7.132;2023-12-28T12:03:42;3.50;;;1.90;;
4106;SDS011;21906;50.812;7.132;2023-12-28T12:06:08;2.67;;;1.60;;
4106;SDS011;21906;50.812;7.132;2023-12-28T12:08:34;2.60;;;1.53;;
4106;SDS011;21906;50.812;7.132;2023-12-28T12:11:04;2.40;;;1.53;;
4106;SDS011;21906;50.812;7.132;2023-12-28T12:13:32;3.17;;;1.67;;
4106;SDS011;21906;50.812;7.132;2023-12-28T12:15:58;3.97;;;1.90;;
4106;SDS011;21906;50.812;7.132;2023-12-28T12:18:25;3.67;;;1.77;;
4106;SDS011;21906;50.812;7.132;2023-12-28T12:20:51;1.70;;;1.60;;
4106;SDS011;21906;50.812;7.132;2023-12-28T12:23:17;3.30;;;1.70;;
4106;SDS011;21906;50.812;7.132;2023-12-28T12:25:43;3.90;;;1.90;;
4106;SDS011;21906;50.812;7.132;2023-12-28T12:28:10;2.00;;;1.40;;
4106;SDS011;21906;50.812;7.132;2023-12-28T12:30:36;3.47;;;1.50;;
4106;SDS011;21906;50.812;7.132;2023-12-28T12:33:02;2.47;;;1.50;;
4106;SDS011;21906;50.812;7.132;2023-12-28T12:35:28;1.77;;;1.40;;
4106;SDS011;21906;50.812;7.132;2023-12-28T12:37:54;2.77;;;1.60;;
4106;SDS011;21906;50.812;7.132;2023-12-28T12:40:20;2.07;;;1.80;;
4106;SDS011;21906;50.812;7.132;2023-12-28T12:42:55;2.70;;;1.53;;
4106;SDS011;21906;50.812;7.132;2023-12-28T12:45:21;3.30;;;1.60;;
4106;SDS011;21906;50.812;7.132;2023-12-28T12:47:47;3.63;;;1.90;;
4106;SDS011;21906;50.812;7.132;2023-12-28T12:50:13;2.40;;;1.60;;
4106;SDS011;21906;50.812;7.132;2023-12-28T12:52:41;2.60;;;1.70;;
4106;SDS011;21906;50.812;7.132;2023-12-28T12:55:14;3.00;;;1.80;;
4106;SDS011;21906;50.812;7.132;2023-12-28T12:57:40;1.53;;;1.40;;
4106;SDS011;21906;50.812;7.132;2023-12-28T13:00:06;2.20;;;1.77;;
4106;SDS011;21906;50.812;7.132;2023-12-28T13:02:34;1.97;;;1.53;;
4106;SDS011;21906;50.812;7.132;2023-12-28T13:05:04;5.03;;;1.67;;
4106;SDS011;21906;50.812;7.132;2023-12-28T13:07:30;3.33;;;1.70;;
4106;SDS011;21906;50.812;7.132;2023-12-28T13:09:57;2.73;;;1.40;;
4106;SDS011;21906;50.812;7.132;2023-12-28T13:12:23;5.87;;;1.60;;
4106;SDS011;21906;50.812;7.132;2023-12-28T13:14:49;5.33;;;2.77;;
4106;SDS011;21906;50.812;7.132;2023-12-28T13:17:15;3.23;;;1.53;;
4106;SDS011;21906;50.812;7.132;2023-12-28T13:19:44;4.07;;;2.07;;
4106;SDS011;21906;50.812;7.132;2023-12-28T13:22:10;4.00;;;1.83;;
4106;SDS011;21906;50.812;7.132;2023-12-28T13:24:35;4.60;;;1.60;;
4106;SDS011;21906;50.812;7.132;2023-12-28T13:27:01;2.20;;;1.47;;
4106;SDS011;21906;50.812;7.132;2023-12-28T13:29:28;5.83;;;1.50;;
4106;SDS011;21906;50.812;7.132;2023-12-28T13:31:54;2.57;;;1.60;;
4106;SDS011;21906;50.812;7.132;2023-12-28T13:34:20;2.73;;;1.60;;
4106;SDS011;21906;50.812;7.132;2023-12-28T13:36:48;1.80;;;1.40;;
4106;SDS011;21906;50.812;7.132;2023-12-28T13:39:13;1.80;;;1.47;;
4106;SDS011;21906;50.812;7.132;2023-12-28T13:41:42;3.23;;;1.63;;
4106;SDS011;21906;50.812;7.132;2023-12-28T13:44:08;1.50;;;1.40;;
4106;SDS011;21906;50.812;7.132;2023-12-28T13:46:37;1.77;;;1.30;;
4106;SDS011;21906;50.812;7.132;2023-12-28T13:49:04;4.97;;;1.70;;
4106;SDS011;21906;50.812;7.132;2023-12-28T13:51:31;6.43;;;2.17;;
4106;SDS011;21906;50.812;7.132;2023-12-28T13:53:57;3.97;;;1.70;;
4106;SDS011;21906;50.812;7.132;2023-12-28T13:56:26;3.00;;;1.80;;
4106;SDS011;21906;50.812;7.132;2023-12-28T13:58:52;5.73;;;2.07;;
4106;SDS011;21906;50.812;7.132;2023-12-28T14:01:17;3.17;;;1.70;;
4106;SDS011;21906;50.812;7.132;2023-12-28T14:03:43;3.97;;;1.90;;
4106;SDS011;21906;50.812;7.132;2023-12-28T14:06:10;2.20;;;1.57;;
4106;SDS011;21906;50.812;7.132;2023-12-28T14:08:36;1.90;;;1.50;;
4106;SDS011;21906;50.812;7.132;2023-12-28T14:11:02;2.40;;;1.77;;
4106;SDS011;21906;50.812;7.132;2023-12-28T14:13:28;3.97;;;1.80;;
4106;SDS011;21906;50.812;7.132;2023-12-28T14:15:54;3.10;;;1.60;;
4106;SDS011;21906;50.812;7.132;2023-12-28T14:18:19;3.17;;;1.63;;
4106;SDS011;21906;50.812;7.132;2023-12-28T14:20:45;3.80;;;1.80;;
4106;SDS011;21906;50.812;7.132;2023-12-28T14:23:11;2.13;;;1.60;;
4106;SDS011;21906;50.812;7.132;2023-12-28T14:25:37;2.80;;;1.30;;
4106;SDS011;21906;50.812;7.132;2023-12-28T14:28:03;2.00;;;1.47;;
4106;SDS011;21906;50.812;7.132;2023-12-28T14:30:30;3.90;;;1.70;;
4106;SDS011;21906;50.812;7.132;2023-12-28T14:32:56;3.53;;;1.60;;
4106;SDS011;21906;50.812;7.132;2023-12-28T14:35:22;3.00;;;1.80;;
4106;SDS011;21906;50.812;7.132;2023-12-28T14:37:50;7.87;;;1.80;;
4106;SDS011;21906;50.812;7.132;2023-12-28T14:40:16;2.43;;;1.60;;
4106;SDS011;21906;50.812;7.132;2023-12-28T14:42:41;2.60;;;1.90;;
4106;SDS011;21906;50.812;7.132;2023-12-28T14:45:07;3.10;;;1.73;;
4106;SDS011;21906;50.812;7.132;2023-12-28T14:47:33;3.00;;;1.50;;
4106;SDS011;21906;50.812;7.132;2023-12-28T14:50:00;5.13;;;1.53;;
4106;SDS011;21906;50.812;7.132;2023-12-28T14:52:27;2.40;;;1.60;;
4106;SDS011;21906;50.812;7.132;2023-12-28T14:54:53;5.90;;;1.70;;
4106;SDS011;21906;50.812;7.132;2023-12-28T14:57:19;3.53;;;1.47;;
4106;SDS011;21906;50.812;7.132;2023-12-28T14:59:46;4.63;;;1.60;;
4106;SDS011;21906;50.812;7.132;2023-12-28T15:02:11;2.50;;;1.40;;
4106;SDS011;21906;50.812;7.132;2023-12-28T15:04:37;3.30;;;2.00;;
4106;SDS011;21906;50.812;7.132;2023-12-28T15:07:03;3.27;;;1.63;;
4106;SDS011;21906;50.812;7.132;2023-12-28T15:09:29;1.80;;;1.70;;